sensor_id;sensor_type;location;lat;lon;timestamp;P1;durP1;ratioP1;P2;durP2;ratioP2
45039;SDS011;30778;53.574;7.770;2023-04-24T00:01:51;2.50;;;1.80;;
45039;SDS011;30778;53.574;7.770;2023-04-24T00:04:17;3.53;;;2.40;;
45039;SDS011;30778;53.574;7.770;2023-04-24T00:06:43;4.25;;;2.47;;
45039;SDS011;30778;53.574;7.770;2023-04-24T00:09:09;2.55;;;2.15;;
45039;SDS011;30778;53.574;7.770;2023-04-24T00:11:35;4.68;;;2.58;;
45039;SDS011;30778;53.574;7.770;2023-04-24T00:14:02;3.00;;;2.55;;
45039;SDS011;30778;53.574;7.770;2023-04-24T00:16:28;4.18;;;2.53;;
45039;SDS011;30778;53.574;7.770;2023-04-24T00:18:53;2.72;;;2.15;;
45039;SDS011;30778;53.574;7.770;2023-04-24T00:21:19;4.20;;;2.42;;
45039;SDS011;30778;53.574;7.770;2023-04-24T00:23:46;6.47;;;2.38;;
45039;SDS011;30778;53.574;7.770;2023-04-24T00:26:12;3.95;;;2.70;;
45039;SDS011;30778;53.574;7.770;2023-04-24T00:28:38;4.53;;;2.85;;
45039;SDS011;30778;53.574;7.770;2023-04-24T00:31:04;3.42;;;2.58;;
45039;SDS011;30778;53.574;7.770;2023-04-24T00:33:29;3.55;;;3.00;;
45039;SDS011;30778;53.574;7.770;2023-04-24T00:35:55;4.57;;;3.20;;
45039;SDS011;30778;53.574;7.770;2023-04-24T00:38:20;3.97;;;3.25;;
45039;SDS011;30778;53.574;7.770;2023-04-24T00:40:47;4.20;;;2.85;;
45039;SDS011;30778;53.574;7.770;2023-04-24T00:43:15;3.72;;;3.03;;
45039;SDS011;30778;53.574;7.770;2023-04-24T00:45:41;3.42;;;1.60;;
45039;SDS011;30778;53.574;7.770;2023-04-24T00:48:07;2.90;;;1.77;;
45039;SDS011;30778;53.574;7.770;2023-04-24T00:50:32;2.70;;;2.10;;
45039;SDS011;30778;53.574;7.770;2023-04-24T00:52:58;3.13;;;2.45;;
45039;SDS011;30778;53.574;7.770;2023-04-24T00:55:24;4.90;;;2.10;;
45039;SDS011;30778;53.574;7.770;2023-04-24T00:57:51;3.65;;;2.88;;
45039;SDS011;30778;53.574;7.770;2023-04-24T01:00:17;2.38;;;2.03;;
45039;SDS011;30778;53.574;7.770;2023-04-24T01:02:44;3.90;;;1.98;;
45039;SDS011;30778;53.574;7.770;2023-04-24T01:05:14;5.00;;;2.00;;
45039;SDS011;30778;53.574;7.770;2023-04-24T01:07:40;3.20;;;1.73;;
45039;SDS011;30778;53.574;7.770;2023-04-24T01:10:11;2.75;;;1.30;;
45039;SDS011;30778;53.574;7.770;2023-04-24T01:12:38;1.90;;;1.40;;
45039;SDS011;30778;53.574;7.770;2023-04-24T01:15:04;2.67;;;1.27;;
45039;SDS011;30778;53.574;7.770;2023-04-24T01:17:32;1.38;;;0.70;;
45039;SDS011;30778;53.574;7.770;2023-04-24T01:19:58;1.52;;;0.60;;
45039;SDS011;30778;53.574;7.770;2023-04-24T01:22:25;1.65;;;0.88;;
45039;SDS011;30778;53.574;7.770;2023-04-24T01:24:51;0.73;;;0.43;;
45039;SDS011;30778;53.574;7.770;2023-04-24T01:27:18;1.15;;;0.43;;
45039;SDS011;30778;53.574;7.770;2023-04-24T01:29:44;0.95;;;0.20;;
45039;SDS011;30778;53.574;7.770;2023-04-24T01:32:10;0.60;;;0.20;;
45039;SDS011;30778;53.574;7.770;2023-04-24T01:34:36;1.27;;;0.20;;
45039;SDS011;30778;53.574;7.770;2023-04-24T01:37:02;0.35;;;0.20;;
45039;SDS011;30778;53.574;7.770;2023-04-24T01:39:28;2.08;;;0.28;;
45039;SDS011;30778;53.574;7.770;2023-04-24T01:41:54;0.40;;;0.20;;
45039;SDS011;30778;53.574;7.770;2023-04-24T01:44:20;1.45;;;0.17;;
45039;SDS011;30778;53.574;7.770;2023-04-24T01:46:46;2.90;;;0.10;;
45039;SDS011;30778;53.574;7.770;2023-04-24T01:49:12;0.60;;;0.20;;
45039;SDS011;30778;53.574;7.770;2023-04-24T01:51:38;0.50;;;0.20;;
45039;SDS011;30778;53.574;7.770;2023-04-24T01:54:03;0.73;;;0.30;;
45039;SDS011;30778;53.574;7.770;2023-04-24T01:56:30;0.88;;;0.30;;
45039;SDS011;30778;53.574;7.770;2023-04-24T01:58:58;1.17;;;0.30;;
45039;SDS011;30778;53.574;7.770;2023-04-24T02:01:24;5.57;;;0.43;;
45039;SDS011;30778;53.574;7.770;2023-04-24T02:03:50;1.23;;;0.50;;
45039;SDS011;30778;53.574;7.770;2023-04-24T02:06:16;1.10;;;0.52;;
45039;SDS011;30778;53.574;7.770;2023-04-24T02:08:41;2.65;;;0.40;;
45039;SDS011;30778;53.574;7.770;2023-04-24T02:11:10;1.02;;;0.60;;
45039;SDS011;30778;53.574;7.770;2023-04-24T02:13:35;1.00;;;0.35;;
45039;SDS011;30778;53.574;7.770;2023-04-24T02:16:01;0.95;;;0.47;;
45039;SDS011;30778;53.574;7.770;2023-04-24T02:18:28;0.63;;;0.40;;
45039;SDS011;30778;53.574;7.770;2023-04-24T02:20:54;0.85;;;0.40;;
45039;SDS011;30778;53.574;7.770;2023-04-24T02:23:19;0.80;;;0.50;;
45039;SDS011;30778;53.574;7.770;2023-04-24T02:25:45;1.10;;;0.47;;
45039;SDS011;30778;53.574;7.770;2023-04-24T02:28:10;1.08;;;0.40;;
45039;SDS011;30778;53.574;7.770;2023-04-24T02:30:36;1.95;;;0.50;;
45039;SDS011;30778;53.574;7.770;2023-04-24T02:33:01;0.82;;;0.60;;
45039;SDS011;30778;53.574;7.770;2023-04-24T02:35:27;2.03;;;0.60;;
45039;SDS011;30778;53.574;7.770;2023-04-24T02:37:52;1.23;;;0.50;;
45039;SDS011;30778;53.574;7.770;2023-04-24T02:40:18;1.77;;;0.57;;
45039;SDS011;30778;53.574;7.770;2023-04-24T02:42:43;1.20;;;0.70;;
45039;SDS011;30778;53.574;7.770;2023-04-24T02:45:09;1.60;;;0.50;;
45039;SDS011;30778;53.574;7.770;2023-04-24T02:47:36;2.10;;;0.88;;
45039;SDS011;30778;53.574;7.770;2023-04-24T02:50:02;1.65;;;0.88;;
45039;SDS011;30778;53.574;7.770;2023-04-24T02:52:28;1.60;;;0.75;;
45039;SDS011;30778;53.574;7.770;2023-04-24T02:54:53;1.60;;;1.00;;
45039;SDS011;30778;53.574;7.770;2023-04-24T02:57:19;2.65;;;1.25;;
45039;SDS011;30778;53.574;7.770;2023-04-24T02:59:45;1.90;;;1.08;;
45039;SDS011;30778;53.574;7.770;2023-04-24T03:02:10;5.90;;;1.63;;
45039;SDS011;30778;53.574;7.770;2023-04-24T03:04:35;2.22;;;1.08;;
45039;SDS011;30778;53.574;7.770;2023-04-24T03:07:01;2.20;;;1.80;;
45039;SDS011;30778;53.574;7.770;2023-04-24T03:09:27;1.83;;;1.20;;
45039;SDS011;30778;53.574;7.770;2023-04-24T03:11:52;3.05;;;1.58;;
45039;SDS011;30778;53.574;7.770;2023-04-24T03:14:18;2.90;;;1.63;;
45039;SDS011;30778;53.574;7.770;2023-04-24T03:16:44;3.13;;;1.60;;
45039;SDS011;30778;53.574;7.770;2023-04-24T03:19:09;1.83;;;1.30;;
45039;SDS011;30778;53.574;7.770;2023-04-24T03:21:43;4.00;;;1.90;;
45039;SDS011;30778;53.574;7.770;2023-04-24T03:24:09;3.08;;;1.95;;
45039;SDS011;30778;53.574;7.770;2023-04-24T03:26:35;3.30;;;1.55;;
45039;SDS011;30778;53.574;7.770;2023-04-24T03:29:15;2.65;;;2.00;;
45039;SDS011;30778;53.574;7.770;2023-04-24T03:31:41;3.40;;;2.25;;
45039;SDS011;30778;53.574;7.770;2023-04-24T03:34:06;2.95;;;2.05;;
45039;SDS011;30778;53.574;7.770;2023-04-24T03:36:32;3.72;;;1.85;;
45039;SDS011;30778;53.574;7.770;2023-04-24T03:38:58;3.10;;;1.85;;
45039;SDS011;30778;53.574;7.770;2023-04-24T03:41:27;2.40;;;1.70;;
45039;SDS011;30778;53.574;7.770;2023-04-24T03:46:25;4.53;;;1.98;;
45039;SDS011;30778;53.574;7.770;2023-04-24T03:48:53;4.40;;;2.15;;
45039;SDS011;30778;53.574;7.770;2023-04-24T03:51:23;2.45;;;1.70;;
45039;SDS011;30778;53.574;7.770;2023-04-24T03:53:52;2.45;;;1.88;;
45039;SDS011;30778;53.574;7.770;2023-04-24T03:56:20;2.40;;;1.73;;
45039;SDS011;30778;53.574;7.770;2023-04-24T03:58:46;3.47;;;2.05;;
45039;SDS011;30778;53.574;7.770;2023-04-24T04:01:11;3.53;;;2.20;;
45039;SDS011;30778;53.574;7.770;2023-04-24T04:03:39;3.00;;;2.05;;
45039;SDS011;30778;53.574;7.770;2023-04-24T04:06:05;3.08;;;1.90;;
45039;SDS011;30778;53.574;7.770;2023-04-24T04:08:31;4.03;;;3.15;;
45039;SDS011;30778;53.574;7.770;2023-04-24T04:10:57;2.92;;;2.20;;
45039;SDS011;30778;53.574;7.770;2023-04-24T04:13:22;3.55;;;2.55;;
45039;SDS011;30778;53.574;7.770;2023-04-24T04:15:48;3.42;;;2.85;;
45039;SDS011;30778;53.574;7.770;2023-04-24T04:18:13;3.70;;;2.55;;
45039;SDS011;30778;53.574;7.770;2023-04-24T04:20:40;5.00;;;2.95;;
45039;SDS011;30778;53.574;7.770;2023-04-24T04:23:05;5.13;;;3.40;;
45039;SDS011;30778;53.574;7.770;2023-04-24T04:25:44;8.00;;;3.65;;
45039;SDS011;30778;53.574;7.770;2023-04-24T04:28:09;5.80;;;4.63;;
45039;SDS011;30778;53.574;7.770;2023-04-24T04:30:35;5.80;;;3.35;;
45039;SDS011;30778;53.574;7.770;2023-04-24T04:33:03;5.18;;;3.88;;
45039;SDS011;30778;53.574;7.770;2023-04-24T04:35:30;7.43;;;4.72;;
45039;SDS011;30778;53.574;7.770;2023-04-24T04:37:57;10.00;;;4.60;;
45039;SDS011;30778;53.574;7.770;2023-04-24T04:40:40;5.05;;;4.47;;
45039;SDS011;30778;53.574;7.770;2023-04-24T04:43:06;7.07;;;4.45;;
45039;SDS011;30778;53.574;7.770;2023-04-24T04:45:39;9.30;;;5.80;;
45039;SDS011;30778;53.574;7.770;2023-04-24T04:48:32;6.93;;;5.32;;
45039;SDS011;30778;53.574;7.770;2023-04-24T04:51:00;7.45;;;5.32;;
45039;SDS011;30778;53.574;7.770;2023-04-24T04:53:27;8.40;;;5.05;;
45039;SDS011;30778;53.574;7.770;2023-04-24T04:55:52;6.78;;;4.68;;
45039;SDS011;30778;53.574;7.770;2023-04-24T04:58:21;5.55;;;4.65;;
45039;SDS011;30778;53.574;7.770;2023-04-24T05:00:51;6.55;;;4.85;;
45039;SDS011;30778;53.574;7.770;2023-04-24T05:03:28;8.13;;;4.40;;
45039;SDS011;30778;53.574;7.770;2023-04-24T05:06:01;6.30;;;4.03;;
45039;SDS011;30778;53.574;7.770;2023-04-24T05:08:30;5.05;;;4.13;;
45039;SDS011;30778;53.574;7.770;2023-04-24T05:10:57;5.15;;;3.95;;
45039;SDS011;30778;53.574;7.770;2023-04-24T05:13:25;5.53;;;4.20;;
45039;SDS011;30778;53.574;7.770;2023-04-24T05:15:51;5.55;;;4.13;;
45039;SDS011;30778;53.574;7.770;2023-04-24T05:18:17;5.95;;;4.35;;
45039;SDS011;30778;53.574;7.770;2023-04-24T05:20:42;5.35;;;4.38;;
45039;SDS011;30778;53.574;7.770;2023-04-24T05:23:09;6.18;;;4.60;;
45039;SDS011;30778;53.574;7.770;2023-04-24T05:25:37;6.57;;;4.10;;
45039;SDS011;30778;53.574;7.770;2023-04-24T05:28:08;4.63;;;3.92;;
45039;SDS011;30778;53.574;7.770;2023-04-24T05:30:33;5.75;;;4.28;;
45039;SDS011;30778;53.574;7.770;2023-04-24T05:32:59;3.70;;;3.03;;
45039;SDS011;30778;53.574;7.770;2023-04-24T05:35:24;5.43;;;3.85;;
45039;SDS011;30778;53.574;7.770;2023-04-24T05:37:50;5.68;;;3.85;;
45039;SDS011;30778;53.574;7.770;2023-04-24T05:40:17;4.80;;;3.63;;
45039;SDS011;30778;53.574;7.770;2023-04-24T05:42:42;4.97;;;3.80;;
45039;SDS011;30778;53.574;7.770;2023-04-24T05:45:08;3.50;;;2.83;;
45039;SDS011;30778;53.574;7.770;2023-04-24T05:47:34;7.35;;;3.20;;
45039;SDS011;30778;53.574;7.770;2023-04-24T05:50:00;4.75;;;3.85;;
45039;SDS011;30778;53.574;7.770;2023-04-24T05:52:26;4.72;;;3.08;;
45039;SDS011;30778;53.574;7.770;2023-04-24T05:54:52;3.45;;;2.63;;
45039;SDS011;30778;53.574;7.770;2023-04-24T05:57:22;5.07;;;3.08;;
45039;SDS011;30778;53.574;7.770;2023-04-24T06:00:08;4.35;;;3.10;;
45039;SDS011;30778;53.574;7.770;2023-04-24T06:02:48;6.43;;;3.40;;
45039;SDS011;30778;53.574;7.770;2023-04-24T06:05:13;3.83;;;2.85;;
45039;SDS011;30778;53.574;7.770;2023-04-24T06:07:40;5.47;;;3.38;;
45039;SDS011;30778;53.574;7.770;2023-04-24T06:10:06;5.95;;;3.38;;
45039;SDS011;30778;53.574;7.770;2023-04-24T06:12:39;3.65;;;2.75;;
45039;SDS011;30778;53.574;7.770;2023-04-24T06:15:10;4.75;;;2.72;;
45039;SDS011;30778;53.574;7.770;2023-04-24T06:17:56;4.57;;;3.17;;
45039;SDS011;30778;53.574;7.770;2023-04-24T06:20:23;3.38;;;2.95;;
45039;SDS011;30778;53.574;7.770;2023-04-24T06:22:48;3.95;;;3.08;;
45039;SDS011;30778;53.574;7.770;2023-04-24T06:25:14;5.03;;;2.97;;
45039;SDS011;30778;53.574;7.770;2023-04-24T06:27:42;4.47;;;2.78;;
45039;SDS011;30778;53.574;7.770;2023-04-24T06:30:07;4.70;;;2.97;;
45039;SDS011;30778;53.574;7.770;2023-04-24T06:32:33;4.00;;;2.22;;
45039;SDS011;30778;53.574;7.770;2023-04-24T06:34:59;4.40;;;2.97;;
45039;SDS011;30778;53.574;7.770;2023-04-24T06:37:24;4.40;;;3.00;;
45039;SDS011;30778;53.574;7.770;2023-04-24T06:39:50;3.85;;;2.10;;
45039;SDS011;30778;53.574;7.770;2023-04-24T06:42:15;4.68;;;3.50;;
45039;SDS011;30778;53.574;7.770;2023-04-24T06:44:43;5.43;;;3.80;;
45039;SDS011;30778;53.574;7.770;2023-04-24T06:47:09;3.72;;;2.72;;
45039;SDS011;30778;53.574;7.770;2023-04-24T06:49:36;4.90;;;3.25;;
45039;SDS011;30778;53.574;7.770;2023-04-24T06:52:02;4.00;;;2.75;;
45039;SDS011;30778;53.574;7.770;2023-04-24T06:54:28;4.50;;;3.20;;
45039;SDS011;30778;53.574;7.770;2023-04-24T06:56:54;3.75;;;3.03;;
45039;SDS011;30778;53.574;7.770;2023-04-24T06:59:22;3.80;;;2.47;;
45039;SDS011;30778;53.574;7.770;2023-04-24T07:01:49;3.47;;;2.00;;
45039;SDS011;30778;53.574;7.770;2023-04-24T07:04:15;3.85;;;2.38;;
45039;SDS011;30778;53.574;7.770;2023-04-24T07:06:40;3.03;;;2.22;;
45039;SDS011;30778;53.574;7.770;2023-04-24T07:09:06;2.95;;;1.75;;
45039;SDS011;30778;53.574;7.770;2023-04-24T07:11:31;3.47;;;2.65;;
45039;SDS011;30778;53.574;7.770;2023-04-24T07:13:57;3.08;;;2.15;;
45039;SDS011;30778;53.574;7.770;2023-04-24T07:16:23;4.05;;;1.98;;
45039;SDS011;30778;53.574;7.770;2023-04-24T07:18:49;3.38;;;2.05;;
45039;SDS011;30778;53.574;7.770;2023-04-24T07:21:15;3.08;;;2.03;;
45039;SDS011;30778;53.574;7.770;2023-04-24T07:23:41;2.40;;;1.60;;
45039;SDS011;30778;53.574;7.770;2023-04-24T07:26:07;3.65;;;1.80;;
45039;SDS011;30778;53.574;7.770;2023-04-24T07:28:33;3.08;;;2.10;;
45039;SDS011;30778;53.574;7.770;2023-04-24T07:30:58;4.82;;;1.63;;
45039;SDS011;30778;53.574;7.770;2023-04-24T07:33:25;3.95;;;2.72;;
45039;SDS011;30778;53.574;7.770;2023-04-24T07:35:51;2.88;;;2.17;;
45039;SDS011;30778;53.574;7.770;2023-04-24T07:38:17;2.65;;;1.58;;
45039;SDS011;30778;53.574;7.770;2023-04-24T07:40:45;2.85;;;1.88;;
45039;SDS011;30778;53.574;7.770;2023-04-24T07:43:14;2.67;;;1.92;;
45039;SDS011;30778;53.574;7.770;2023-04-24T07:45:39;2.72;;;1.63;;
45039;SDS011;30778;53.574;7.770;2023-04-24T07:48:05;6.53;;;1.27;;
45039;SDS011;30778;53.574;7.770;2023-04-24T07:50:31;2.53;;;1.58;;
45039;SDS011;30778;53.574;7.770;2023-04-24T07:52:57;2.30;;;1.67;;
45039;SDS011;30778;53.574;7.770;2023-04-24T07:55:24;2.05;;;1.40;;
45039;SDS011;30778;53.574;7.770;2023-04-24T07:57:50;2.55;;;1.42;;
45039;SDS011;30778;53.574;7.770;2023-04-24T08:00:16;2.00;;;1.17;;
45039;SDS011;30778;53.574;7.770;2023-04-24T08:02:43;2.08;;;1.15;;
45039;SDS011;30778;53.574;7.770;2023-04-24T08:05:10;2.63;;;1.58;;
45039;SDS011;30778;53.574;7.770;2023-04-24T08:07:36;3.08;;;2.03;;
45039;SDS011;30778;53.574;7.770;2023-04-24T08:10:03;3.50;;;1.48;;
45039;SDS011;30778;53.574;7.770;2023-04-24T08:12:29;1.95;;;1.17;;
45039;SDS011;30778;53.574;7.770;2023-04-24T08:14:55;5.55;;;1.20;;
45039;SDS011;30778;53.574;7.770;2023-04-24T08:17:20;1.83;;;1.27;;
45039;SDS011;30778;53.574;7.770;2023-04-24T08:19:46;1.55;;;0.80;;
45039;SDS011;30778;53.574;7.770;2023-04-24T08:22:16;1.92;;;1.00;;
45039;SDS011;30778;53.574;7.770;2023-04-24T08:24:42;2.30;;;1.08;;
45039;SDS011;30778;53.574;7.770;2023-04-24T08:27:07;1.80;;;1.02;;
45039;SDS011;30778;53.574;7.770;2023-04-24T08:29:33;1.77;;;1.05;;
45039;SDS011;30778;53.574;7.770;2023-04-24T08:31:59;1.83;;;1.05;;
45039;SDS011;30778;53.574;7.770;2023-04-24T08:34:25;1.52;;;1.10;;
45039;SDS011;30778;53.574;7.770;2023-04-24T08:36:50;1.95;;;1.27;;
45039;SDS011;30778;53.574;7.770;2023-04-24T08:39:16;1.80;;;1.08;;
45039;SDS011;30778;53.574;7.770;2023-04-24T08:41:42;1.52;;;0.80;;
45039;SDS011;30778;53.574;7.770;2023-04-24T08:44:10;1.83;;;1.17;;
45039;SDS011;30778;53.574;7.770;2023-04-24T08:46:36;1.70;;;0.88;;
45039;SDS011;30778;53.574;7.770;2023-04-24T08:49:02;1.77;;;1.00;;
45039;SDS011;30778;53.574;7.770;2023-04-24T08:51:29;1.90;;;1.17;;
45039;SDS011;30778;53.574;7.770;2023-04-24T08:53:56;1.90;;;0.85;;
45039;SDS011;30778;53.574;7.770;2023-04-24T08:56:22;1.25;;;0.68;;
45039;SDS011;30778;53.574;7.770;2023-04-24T08:58:50;1.55;;;0.77;;
45039;SDS011;30778;53.574;7.770;2023-04-24T09:01:18;1.27;;;0.60;;
45039;SDS011;30778;53.574;7.770;2023-04-24T09:03:45;1.48;;;0.50;;
45039;SDS011;30778;53.574;7.770;2023-04-24T09:06:14;1.08;;;0.43;;
45039;SDS011;30778;53.574;7.770;2023-04-24T09:08:42;1.70;;;0.82;;
45039;SDS011;30778;53.574;7.770;2023-04-24T09:11:09;1.45;;;0.63;;
45039;SDS011;30778;53.574;7.770;2023-04-24T09:13:35;1.58;;;0.80;;
45039;SDS011;30778;53.574;7.770;2023-04-24T09:16:00;2.08;;;1.30;;
45039;SDS011;30778;53.574;7.770;2023-04-24T09:18:26;2.72;;;2.13;;
45039;SDS011;30778;53.574;7.770;2023-04-24T09:21:07;4.40;;;2.38;;
45039;SDS011;30778;53.574;7.770;2023-04-24T09:23:33;6.47;;;2.77;;
45039;SDS011;30778;53.574;7.770;2023-04-24T09:26:00;5.78;;;3.33;;
45039;SDS011;30778;53.574;7.770;2023-04-24T09:28:31;3.28;;;2.20;;
45039;SDS011;30778;53.574;7.770;2023-04-24T09:36:34;4.32;;;3.08;;
45039;SDS011;30778;53.574;7.770;2023-04-24T09:39:03;5.00;;;2.97;;
45039;SDS011;30778;53.574;7.770;2023-04-24T09:41:31;5.97;;;2.22;;
45039;SDS011;30778;53.574;7.770;2023-04-24T09:43:57;3.53;;;2.15;;
45039;SDS011;30778;53.574;7.770;2023-04-24T09:46:36;3.92;;;1.52;;
45039;SDS011;30778;53.574;7.770;2023-04-24T09:49:08;5.00;;;2.05;;
45039;SDS011;30778;53.574;7.770;2023-04-24T09:51:36;6.53;;;2.35;;
45039;SDS011;30778;53.574;7.770;2023-04-24T09:54:03;4.28;;;1.60;;
45039;SDS011;30778;53.574;7.770;2023-04-24T09:56:33;6.47;;;1.42;;
45039;SDS011;30778;53.574;7.770;2023-04-24T09:59:05;3.17;;;1.02;;
45039;SDS011;30778;53.574;7.770;2023-04-24T10:01:32;6.72;;;1.38;;
45039;SDS011;30778;53.574;7.770;2023-04-24T10:03:58;5.75;;;1.05;;
45039;SDS011;30778;53.574;7.770;2023-04-24T10:06:34;3.33;;;1.02;;
45039;SDS011;30778;53.574;7.770;2023-04-24T10:09:01;1.98;;;0.90;;
45039;SDS011;30778;53.574;7.770;2023-04-24T10:11:27;1.98;;;1.00;;
45039;SDS011;30778;53.574;7.770;2023-04-24T10:13:53;2.47;;;0.77;;
45039;SDS011;30778;53.574;7.770;2023-04-24T10:16:19;3.50;;;1.83;;
45039;SDS011;30778;53.574;7.770;2023-04-24T10:18:47;5.35;;;1.40;;
45039;SDS011;30778;53.574;7.770;2023-04-24T10:21:14;4.65;;;2.58;;
45039;SDS011;30778;53.574;7.770;2023-04-24T10:23:40;8.38;;;3.50;;
45039;SDS011;30778;53.574;7.770;2023-04-24T10:26:08;12.20;;;5.65;;
45039;SDS011;30778;53.574;7.770;2023-04-24T10:28:36;9.98;;;5.57;;
45039;SDS011;30778;53.574;7.770;2023-04-24T10:31:02;16.90;;;7.65;;
45039;SDS011;30778;53.574;7.770;2023-04-24T10:33:27;14.10;;;5.85;;
45039;SDS011;30778;53.574;7.770;2023-04-24T10:35:54;10.80;;;6.63;;
45039;SDS011;30778;53.574;7.770;2023-04-24T10:38:22;11.65;;;6.15;;
45039;SDS011;30778;53.574;7.770;2023-04-24T10:40:51;12.52;;;6.25;;
45039;SDS011;30778;53.574;7.770;2023-04-24T10:43:17;18.33;;;6.57;;
45039;SDS011;30778;53.574;7.770;2023-04-24T10:46:00;11.32;;;6.35;;
45039;SDS011;30778;53.574;7.770;2023-04-24T10:48:27;12.88;;;5.85;;
45039;SDS011;30778;53.574;7.770;2023-04-24T10:50:53;9.63;;;5.53;;
45039;SDS011;30778;53.574;7.770;2023-04-24T10:53:20;9.52;;;5.55;;
45039;SDS011;30778;53.574;7.770;2023-04-24T10:55:56;10.13;;;5.78;;
45039;SDS011;30778;53.574;7.770;2023-04-24T11:00:57;14.07;;;7.32;;
45039;SDS011;30778;53.574;7.770;2023-04-24T11:03:25;17.13;;;7.85;;
45039;SDS011;30778;53.574;7.770;2023-04-24T11:05:56;11.95;;;7.40;;
45039;SDS011;30778;53.574;7.770;2023-04-24T11:08:24;12.77;;;7.22;;
45039;SDS011;30778;53.574;7.770;2023-04-24T11:10:56;9.90;;;6.32;;
45039;SDS011;30778;53.574;7.770;2023-04-24T11:14:14;11.55;;;6.40;;
45039;SDS011;30778;53.574;7.770;2023-04-24T11:19:01;12.05;;;7.50;;
45039;SDS011;30778;53.574;7.770;2023-04-24T11:21:49;16.33;;;7.75;;
45039;SDS011;30778;53.574;7.770;2023-04-24T11:27:12;13.38;;;7.45;;
45039;SDS011;30778;53.574;7.770;2023-04-24T11:32:19;18.77;;;8.38;;
45039;SDS011;30778;53.574;7.770;2023-04-24T11:34:50;17.75;;;8.52;;
45039;SDS011;30778;53.574;7.770;2023-04-24T11:37:17;23.67;;;9.63;;
45039;SDS011;30778;53.574;7.770;2023-04-24T11:39:43;16.90;;;8.85;;
45039;SDS011;30778;53.574;7.770;2023-04-24T11:42:09;28.15;;;9.90;;
45039;SDS011;30778;53.574;7.770;2023-04-24T11:44:35;19.85;;;9.15;;
45039;SDS011;30778;53.574;7.770;2023-04-24T11:47:05;15.38;;;9.82;;
45039;SDS011;30778;53.574;7.770;2023-04-24T11:49:32;21.77;;;10.52;;
45039;SDS011;30778;53.574;7.770;2023-04-24T11:51:59;19.90;;;9.98;;
45039;SDS011;30778;53.574;7.770;2023-04-24T11:54:26;15.02;;;8.60;;
45039;SDS011;30778;53.574;7.770;2023-04-24T11:56:52;17.85;;;9.43;;
45039;SDS011;30778;53.574;7.770;2023-04-24T11:59:18;14.93;;;7.50;;
45039;SDS011;30778;53.574;7.770;2023-04-24T12:01:46;16.13;;;7.63;;
45039;SDS011;30778;53.574;7.770;2023-04-24T12:04:14;17.17;;;7.47;;
45039;SDS011;30778;53.574;7.770;2023-04-24T12:06:40;16.60;;;7.45;;
45039;SDS011;30778;53.574;7.770;2023-04-24T12:09:24;15.25;;;7.00;;
45039;SDS011;30778;53.574;7.770;2023-04-24T12:11:53;14.90;;;7.43;;
45039;SDS011;30778;53.574;7.770;2023-04-24T12:14:22;13.35;;;6.60;;
45039;SDS011;30778;53.574;7.770;2023-04-24T12:16:51;21.65;;;7.88;;
45039;SDS011;30778;53.574;7.770;2023-04-24T12:19:20;11.52;;;6.57;;
45039;SDS011;30778;53.574;7.770;2023-04-24T12:21:58;10.73;;;6.15;;
45039;SDS011;30778;53.574;7.770;2023-04-24T12:24:25;9.82;;;6.57;;
45039;SDS011;30778;53.574;7.770;2023-04-24T12:26:50;12.27;;;6.30;;
45039;SDS011;30778;53.574;7.770;2023-04-24T12:29:19;11.70;;;6.13;;
45039;SDS011;30778;53.574;7.770;2023-04-24T12:31:46;17.08;;;6.85;;
45039;SDS011;30778;53.574;7.770;2023-04-24T12:34:18;13.77;;;6.50;;
45039;SDS011;30778;53.574;7.770;2023-04-24T12:36:47;8.55;;;4.82;;
45039;SDS011;30778;53.574;7.770;2023-04-24T12:39:19;15.25;;;5.93;;
45039;SDS011;30778;53.574;7.770;2023-04-24T12:41:57;10.43;;;5.30;;
45039;SDS011;30778;53.574;7.770;2023-04-24T12:44:30;12.38;;;4.45;;
45039;SDS011;30778;53.574;7.770;2023-04-24T12:47:16;21.25;;;5.32;;
45039;SDS011;30778;53.574;7.770;2023-04-24T12:49:46;10.38;;;4.03;;
45039;SDS011;30778;53.574;7.770;2023-04-24T12:52:13;12.27;;;3.97;;
45039;SDS011;30778;53.574;7.770;2023-04-24T12:54:39;11.98;;;4.80;;
45039;SDS011;30778;53.574;7.770;2023-04-24T12:57:11;6.13;;;2.85;;
45039;SDS011;30778;53.574;7.770;2023-04-24T12:59:42;12.73;;;4.07;;
45039;SDS011;30778;53.574;7.770;2023-04-24T13:02:08;6.88;;;3.85;;
45039;SDS011;30778;53.574;7.770;2023-04-24T13:04:35;10.25;;;3.22;;
45039;SDS011;30778;53.574;7.770;2023-04-24T13:07:03;7.60;;;4.13;;
45039;SDS011;30778;53.574;7.770;2023-04-24T13:09:28;10.98;;;3.08;;
45039;SDS011;30778;53.574;7.770;2023-04-24T13:11:55;7.90;;;2.13;;
45039;SDS011;30778;53.574;7.770;2023-04-24T13:14:31;11.93;;;3.42;;
45039;SDS011;30778;53.574;7.770;2023-04-24T13:16:57;11.88;;;3.47;;
45039;SDS011;30778;53.574;7.770;2023-04-24T13:19:25;8.68;;;3.38;;
45039;SDS011;30778;53.574;7.770;2023-04-24T13:21:52;5.78;;;2.67;;
45039;SDS011;30778;53.574;7.770;2023-04-24T13:24:20;9.05;;;3.42;;
45039;SDS011;30778;53.574;7.770;2023-04-24T13:26:46;9.15;;;3.30;;
45039;SDS011;30778;53.574;7.770;2023-04-24T13:29:11;13.88;;;3.58;;
45039;SDS011;30778;53.574;7.770;2023-04-24T13:31:37;9.65;;;2.90;;
45039;SDS011;30778;53.574;7.770;2023-04-24T13:34:02;8.00;;;2.95;;
45039;SDS011;30778;53.574;7.770;2023-04-24T13:36:29;10.30;;;3.17;;
45039;SDS011;30778;53.574;7.770;2023-04-24T13:38:55;11.68;;;3.40;;
45039;SDS011;30778;53.574;7.770;2023-04-24T13:41:20;12.00;;;3.40;;
45039;SDS011;30778;53.574;7.770;2023-04-24T13:43:46;6.82;;;3.33;;
45039;SDS011;30778;53.574;7.770;2023-04-24T13:46:17;11.10;;;4.37;;
45039;SDS011;30778;53.574;7.770;2023-04-24T13:48:46;16.02;;;4.00;;
45039;SDS011;30778;53.574;7.770;2023-04-24T13:51:14;14.00;;;3.05;;
45039;SDS011;30778;53.574;7.770;2023-04-24T13:53:39;8.35;;;3.20;;
45039;SDS011;30778;53.574;7.770;2023-04-24T13:56:05;5.22;;;3.20;;
45039;SDS011;30778;53.574;7.770;2023-04-24T13:58:31;11.27;;;3.20;;
45039;SDS011;30778;53.574;7.770;2023-04-24T14:00:58;8.05;;;2.92;;
45039;SDS011;30778;53.574;7.770;2023-04-24T14:03:25;11.52;;;3.40;;
45039;SDS011;30778;53.574;7.770;2023-04-24T14:05:53;9.40;;;2.70;;
45039;SDS011;30778;53.574;7.770;2023-04-24T14:08:19;7.40;;;2.75;;
45039;SDS011;30778;53.574;7.770;2023-04-24T14:10:48;6.60;;;2.00;;
45039;SDS011;30778;53.574;7.770;2023-04-24T14:13:14;8.25;;;2.13;;
45039;SDS011;30778;53.574;7.770;2023-04-24T14:15:39;9.75;;;2.55;;
45039;SDS011;30778;53.574;7.770;2023-04-24T14:18:05;9.70;;;2.20;;
45039;SDS011;30778;53.574;7.770;2023-04-24T14:20:30;7.47;;;2.03;;
45039;SDS011;30778;53.574;7.770;2023-04-24T14:22:56;6.68;;;1.80;;
45039;SDS011;30778;53.574;7.770;2023-04-24T14:25:24;3.75;;;1.23;;
45039;SDS011;30778;53.574;7.770;2023-04-24T14:27:50;4.07;;;0.88;;
45039;SDS011;30778;53.574;7.770;2023-04-24T14:30:16;2.45;;;0.70;;
45039;SDS011;30778;53.574;7.770;2023-04-24T14:32:43;6.70;;;1.38;;
45039;SDS011;30778;53.574;7.770;2023-04-24T14:35:09;7.45;;;0.63;;
45039;SDS011;30778;53.574;7.770;2023-04-24T14:37:34;8.80;;;0.65;;
45039;SDS011;30778;53.574;7.770;2023-04-24T14:40:01;5.28;;;0.38;;
45039;SDS011;30778;53.574;7.770;2023-04-24T14:42:29;5.53;;;1.20;;
45039;SDS011;30778;53.574;7.770;2023-04-24T14:44:58;4.15;;;0.57;;
45039;SDS011;30778;53.574;7.770;2023-04-24T14:47:23;5.25;;;0.82;;
45039;SDS011;30778;53.574;7.770;2023-04-24T14:49:52;5.95;;;0.60;;
45039;SDS011;30778;53.574;7.770;2023-04-24T14:52:20;3.40;;;0.60;;
45039;SDS011;30778;53.574;7.770;2023-04-24T14:54:45;2.30;;;1.08;;
45039;SDS011;30778;53.574;7.770;2023-04-24T14:57:11;3.50;;;0.60;;
45039;SDS011;30778;53.574;7.770;2023-04-24T14:59:37;8.85;;;0.55;;
45039;SDS011;30778;53.574;7.770;2023-04-24T15:02:02;2.55;;;0.50;;
45039;SDS011;30778;53.574;7.770;2023-04-24T15:04:28;5.20;;;0.30;;
45039;SDS011;30778;53.574;7.770;2023-04-24T15:06:54;5.07;;;0.25;;